createdAt,value
2023-04-18T03:12:23.629Z,0.93
2023-04-18T03:15:27.015Z,2.12
2023-04-18T03:18:29.359Z,1.55
2023-04-18T03:21:32.033Z,1.87
2023-04-18T03:24:34.515Z,2.05
2023-04-18T03:27:37.571Z,1.20
2023-04-18T03:30:39.957Z,1.60
2023-04-18T03:33:44.203Z,1.40
2023-04-18T03:36:47.992Z,1.67
2023-04-18T03:39:51.758Z,1.37
2023-04-18T03:42:54.569Z,1.25
2023-04-18T03:45:57.025Z,1.62
2023-04-18T03:48:59.708Z,1.20
2023-04-18T03:52:02.134Z,2.45
2023-04-18T03:55:04.873Z,2.47
2023-04-18T03:58:08.437Z,1.75
2023-04-18T04:01:11.042Z,1.65
2023-04-18T04:04:15.290Z,2.78
2023-04-18T04:07:18.151Z,1.98
2023-04-18T04:10:21.323Z,2.00
2023-04-18T04:13:24.057Z,2.12
2023-04-18T04:16:27.873Z,1.00
2023-04-18T04:19:30.316Z,2.67
2023-04-18T04:22:34.411Z,1.98
2023-04-18T04:25:38.594Z,1.23
2023-04-18T04:28:42.874Z,1.50
2023-04-18T04:31:46.536Z,1.23
2023-04-18T04:34:50.444Z,0.85
2023-04-18T04:37:52.967Z,1.40
2023-04-18T04:40:57.440Z,1.80
2023-04-18T04:44:01.743Z,1.87
2023-04-18T04:47:04.939Z,1.40
2023-04-18T04:50:11.632Z,1.37
2023-04-18T04:53:14.090Z,2.25
2023-04-18T04:56:16.390Z,2.42
2023-04-18T04:59:19.281Z,1.60
2023-04-18T05:02:23.249Z,2.30
2023-04-18T05:05:26.945Z,1.58
2023-04-18T05:08:29.093Z,1.48
2023-04-18T05:11:31.537Z,1.83
2023-04-18T05:14:33.783Z,1.35
2023-04-18T05:17:36.317Z,1.27
2023-04-18T05:20:38.538Z,1.27
2023-04-18T05:23:40.974Z,1.33
2023-04-18T05:26:43.427Z,1.75
2023-04-18T05:29:47.515Z,1.50
2023-04-18T05:32:49.948Z,2.20
2023-04-18T05:35:52.484Z,2.22
2023-04-18T05:38:54.657Z,1.98
2023-04-18T05:41:58.293Z,2.40
2023-04-18T05:45:00.547Z,2.37
2023-04-18T05:48:03.245Z,2.72
2023-04-18T05:51:05.876Z,2.47
2023-04-18T05:54:08.269Z,2.53
2023-04-18T05:57:10.545Z,1.95
2023-04-18T06:00:13.759Z,1.42
2023-04-18T06:03:16.693Z,2.12
2023-04-18T06:06:19.278Z,1.87
2023-04-18T06:09:21.775Z,2.42
2023-04-18T06:12:24.259Z,2.15
2023-04-18T06:15:28.207Z,1.48
2023-04-18T06:18:30.369Z,2.30
2023-04-18T06:21:32.896Z,1.00
2023-04-18T06:24:35.169Z,2.00
2023-04-18T06:27:38.272Z,1.12
2023-04-18T06:30:40.631Z,1.20
2023-04-18T06:33:43.057Z,1.42
2023-04-18T06:36:45.293Z,2.15
2023-04-18T06:39:47.797Z,2.10
2023-04-18T06:42:49.932Z,1.40
2023-04-18T06:45:52.822Z,1.40
2023-04-18T06:48:55.063Z,1.50
2023-04-18T06:51:57.504Z,1.27
2023-04-18T06:54:59.683Z,2.50
2023-04-18T06:58:02.110Z,1.52
2023-04-18T07:01:04.505Z,1.58
2023-04-18T07:04:07.055Z,1.10
2023-04-18T07:07:09.379Z,1.10
2023-04-18T07:10:11.910Z,1.10
2023-04-18T07:13:14.045Z,1.42
2023-04-18T07:16:16.635Z,1.50
2023-04-18T07:19:18.871Z,1.62
2023-04-18T07:22:21.295Z,1.20
2023-04-18T07:25:23.398Z,1.20
2023-04-18T07:28:25.959Z,1.30
2023-04-18T07:31:28.707Z,1.73
2023-04-18T07:34:31.475Z,1.42
2023-04-18T07:37:33.653Z,1.42
2023-04-18T07:40:36.054Z,1.20
2023-04-18T07:43:38.971Z,1.67
2023-04-18T07:46:41.543Z,1.92
2023-04-18T07:49:43.737Z,1.60
2023-04-18T07:52:48.714Z,1.42
2023-04-18T07:55:51.139Z,0.85
2023-04-18T07:58:53.776Z,1.10
2023-04-18T08:01:56.099Z,1.30
2023-04-18T08:04:58.965Z,1.50
2023-04-18T08:08:02.370Z,1.15
2023-04-18T08:11:04.906Z,0.90
2023-04-18T08:14:07.058Z,0.90
2023-04-18T08:17:09.608Z,1.98
2023-04-18T08:20:12.992Z,0.90
2023-04-18T08:23:15.932Z,0.57
2023-04-18T08:26:18.206Z,1.40
2023-04-18T08:29:20.620Z,1.40
2023-04-18T08:32:22.758Z,1.00
2023-04-18T08:35:25.226Z,0.90
2023-04-18T08:38:27.461Z,1.00
2023-04-18T08:41:35.947Z,0.60
2023-04-18T08:44:38.204Z,0.90
2023-04-18T08:47:41.792Z,0.90
2023-04-18T08:50:45.349Z,0.88
2023-04-18T08:53:48.311Z,0.90
2023-04-18T08:57:12.600Z,1.00
2023-04-18T09:00:17.692Z,0.98
2023-04-18T09:03:39.992Z,1.12
2023-04-18T09:06:53.126Z,0.90
2023-04-18T09:09:57.290Z,1.02
2023-04-18T09:13:03.253Z,0.65
2023-04-18T09:16:06.349Z,0.80
2023-04-18T09:19:14.623Z,0.90
2023-04-18T09:22:18.083Z,0.82
2023-04-18T09:25:29.383Z,0.98
2023-04-18T09:28:33.236Z,1.10
2023-04-18T09:31:51.103Z,0.82
2023-04-18T09:34:58.007Z,0.98
2023-04-18T09:38:00.725Z,0.75
2023-04-18T09:41:10.242Z,0.80
2023-04-18T09:44:14.987Z,0.90
2023-04-18T09:47:17.625Z,0.80
2023-04-18T09:50:20.825Z,0.68
2023-04-18T09:53:24.336Z,0.73
2023-04-18T09:56:29.553Z,0.88
2023-04-18T09:59:41.389Z,1.10
2023-04-18T10:02:58.043Z,1.23
2023-04-18T10:06:00.840Z,0.80
2023-04-18T10:09:04.239Z,0.73
2023-04-18T10:12:06.978Z,1.33
2023-04-18T10:15:11.173Z,0.82
2023-04-18T10:18:16.949Z,1.17
2023-04-18T10:24:56.868Z,1.17
2023-04-18T10:28:02.908Z,0.80
2023-04-18T10:31:05.835Z,1.15
2023-04-18T10:34:08.186Z,1.12
2023-04-18T10:37:12.830Z,0.75
2023-04-18T10:40:15.697Z,0.75
2023-04-18T10:43:18.372Z,0.50
2023-04-18T10:46:31.130Z,1.05
2023-04-18T10:49:36.639Z,0.98
2023-04-18T10:52:39.086Z,0.90
2023-04-18T10:55:50.131Z,0.98
2023-04-18T10:58:53.668Z,0.73
2023-04-18T11:02:09.838Z,0.82
2023-04-18T11:08:24.212Z,0.70
2023-04-18T11:11:26.447Z,0.95
2023-04-18T11:14:51.954Z,0.80
2023-04-18T11:17:58.065Z,0.50
2023-04-18T11:21:03.753Z,0.93
2023-04-18T11:24:06.160Z,0.88
2023-04-18T11:27:10.937Z,1.17
2023-04-18T11:30:14.850Z,0.70
2023-04-18T11:33:17.343Z,1.25
2023-04-18T11:36:19.525Z,0.77
2023-04-18T11:39:22.383Z,0.70
2023-04-18T11:42:28.544Z,0.80
2023-04-18T11:45:31.261Z,0.80
2023-04-18T11:48:43.193Z,1.00
2023-04-18T11:51:47.363Z,0.43
2023-04-18T11:54:51.332Z,0.93
2023-04-18T11:57:54.776Z,1.02
2023-04-18T12:00:57.008Z,0.70
2023-04-18T12:04:07.129Z,0.60
2023-04-18T12:07:09.479Z,0.88
2023-04-18T12:10:27.576Z,0.77
2023-04-18T12:13:33.055Z,0.57
2023-04-18T12:16:35.647Z,0.82
2023-04-18T12:19:37.937Z,0.57
2023-04-18T12:22:42.034Z,1.10
2023-04-18T12:25:44.298Z,0.80
2023-04-18T12:28:51.213Z,0.73
2023-04-18T12:31:53.498Z,1.02
2023-04-18T12:34:55.938Z,0.75
2023-04-18T12:38:00.365Z,0.50
2023-04-18T12:41:02.790Z,0.73
2023-04-18T12:44:05.950Z,0.50
2023-04-18T12:47:08.900Z,0.70
2023-04-18T12:50:15.479Z,0.65
2023-04-18T12:53:17.926Z,0.52
2023-04-18T12:56:21.038Z,0.52
2023-04-18T12:59:23.762Z,0.65
2023-04-18T13:02:28.914Z,0.82
2023-04-18T13:05:33.938Z,0.35
2023-04-18T13:08:37.475Z,0.40
2023-04-18T13:11:39.861Z,0.60
2023-04-18T13:14:42.675Z,0.75
2023-04-18T13:17:45.426Z,0.52
2023-04-18T13:20:47.818Z,0.62
2023-04-18T13:23:50.250Z,0.73
2023-04-18T13:26:52.837Z,0.50
2023-04-18T13:29:58.325Z,0.50
2023-04-18T13:33:00.635Z,0.57
2023-04-18T13:36:03.297Z,1.20
2023-04-18T13:39:05.742Z,0.50
2023-04-18T13:42:08.848Z,0.75
2023-04-18T13:45:11.236Z,0.40
2023-04-18T13:48:15.705Z,0.73
2023-04-18T13:51:19.004Z,0.90
2023-04-18T13:54:21.819Z,0.85
2023-04-18T13:57:23.970Z,0.75
2023-04-18T14:00:26.940Z,0.50
2023-04-18T14:03:30.007Z,0.60
2023-04-18T14:06:32.649Z,0.65
2023-04-18T14:09:35.230Z,0.57
2023-04-18T14:12:37.548Z,0.75
2023-04-18T14:15:40.043Z,0.52
2023-04-18T14:18:42.365Z,0.90
2023-04-18T14:21:46.504Z,0.60
2023-04-18T14:24:49.127Z,0.80
2023-04-18T14:28:04.685Z,0.75
2023-04-18T14:31:06.877Z,0.60
2023-04-18T14:34:09.822Z,0.80
2023-04-18T14:37:12.050Z,0.35
2023-04-18T14:40:14.592Z,0.60
2023-04-18T14:43:16.821Z,0.80
2023-04-18T14:46:20.990Z,0.80
2023-04-18T14:49:23.190Z,0.60
2023-04-18T14:52:25.765Z,0.80
2023-04-18T14:55:27.925Z,1.15
2023-04-18T14:58:30.467Z,0.40
2023-04-18T15:01:32.593Z,0.80
2023-04-18T15:04:35.107Z,0.73
2023-04-18T15:07:37.933Z,0.43
2023-04-18T15:10:42.257Z,0.82
2023-04-18T15:13:44.647Z,0.80
2023-04-18T15:16:49.953Z,0.55
